createdAt,value
2023-04-15T00:01:11.939Z,75.25
2023-04-15T00:03:39.061Z,75.18
2023-04-15T00:06:07.669Z,75.08
2023-04-15T00:08:34.360Z,75.03
2023-04-15T00:11:03.123Z,75.11
2023-04-15T00:13:29.928Z,74.59
2023-04-15T00:15:56.511Z,74.97
2023-04-15T00:18:24.136Z,75.68
2023-04-15T00:20:50.758Z,75.36
2023-04-15T00:23:19.006Z,75.16
2023-04-15T00:25:45.568Z,75.01
2023-04-15T00:28:12.418Z,75.31
2023-04-15T00:30:39.114Z,75.25
2023-04-15T00:33:05.777Z,74.65
2023-04-15T00:35:36.657Z,75.34
2023-04-15T00:38:04.758Z,74.48
2023-04-15T00:40:33.368Z,77.82
2023-04-15T00:43:00.284Z,79.82
2023-04-15T00:45:28.125Z,76.34
2023-04-15T00:47:55.781Z,76.06
2023-04-15T00:50:22.823Z,75.56
2023-04-15T00:52:49.433Z,75.78
2023-04-15T00:55:16.414Z,74.34
2023-04-15T00:57:44.567Z,75.38
2023-04-15T01:00:12.528Z,75.78
2023-04-15T01:02:39.498Z,73.16
2023-04-15T01:05:07.717Z,79.72
2023-04-15T01:07:34.364Z,76.35
2023-04-15T01:10:01.107Z,75.25
2023-04-15T01:12:28.232Z,75.19
2023-04-15T01:14:57.220Z,76.08
2023-04-15T01:17:24.775Z,75.94
2023-04-15T01:19:52.253Z,75.43
2023-04-15T01:22:18.874Z,75.16
2023-04-15T01:24:52.205Z,75.50
2023-04-15T01:27:20.661Z,75.46
2023-04-15T01:29:47.255Z,74.93
2023-04-15T01:32:14.001Z,75.46
2023-04-15T01:34:40.808Z,75.75
2023-04-15T01:37:07.463Z,75.14
2023-04-15T01:39:34.479Z,75.35
2023-04-15T01:42:01.097Z,74.82
2023-04-15T01:44:29.028Z,74.63
2023-04-15T01:46:55.661Z,73.68
2023-04-15T01:49:22.508Z,78.69
2023-04-15T01:51:49.344Z,77.79
2023-04-15T01:54:16.271Z,80.31
2023-04-15T01:56:42.892Z,78.64
2023-04-15T01:59:09.728Z,75.83
2023-04-15T02:01:38.197Z,75.84
2023-04-15T02:04:05.004Z,74.46
2023-04-15T02:06:31.710Z,75.50
2023-04-15T02:08:59.198Z,74.98
2023-04-15T02:11:26.016Z,75.79
2023-04-15T02:13:52.947Z,75.21
2023-04-15T02:16:20.187Z,75.80
2023-04-15T02:18:48.309Z,74.90
2023-04-15T02:21:15.064Z,75.28
2023-04-15T02:23:41.711Z,75.34
2023-04-15T02:26:08.325Z,75.25
2023-04-15T02:28:35.005Z,75.15
2023-04-15T02:31:06.409Z,75.57
2023-04-15T02:33:33.230Z,74.95
2023-04-15T02:36:01.714Z,74.76
2023-04-15T02:38:28.362Z,75.54
2023-04-15T02:40:54.978Z,75.43
2023-04-15T02:43:21.717Z,75.56
2023-04-15T02:45:48.728Z,75.19
2023-04-15T02:48:17.990Z,74.60
2023-04-15T02:50:44.602Z,75.51
2023-04-15T02:53:13.427Z,75.34
2023-04-15T02:55:40.242Z,74.88
2023-04-15T02:58:07.152Z,75.00
2023-04-15T03:00:33.803Z,74.88
2023-04-15T03:03:03.829Z,75.76
2023-04-15T03:05:30.923Z,75.46
2023-04-15T03:07:57.571Z,75.36
2023-04-15T03:10:25.629Z,75.32
2023-04-15T03:12:52.268Z,75.27
2023-04-15T03:15:18.931Z,75.94
2023-04-15T03:17:45.659Z,76.00
2023-04-15T03:20:12.667Z,75.85
2023-04-15T03:22:39.307Z,75.49
2023-04-15T03:25:06.415Z,75.17
2023-04-15T03:27:37.050Z,75.42
2023-04-15T03:30:04.113Z,74.73
2023-04-15T03:32:30.768Z,74.57
2023-04-15T03:34:57.395Z,74.63
2023-04-15T03:37:24.040Z,75.11
2023-04-15T03:39:50.593Z,74.57
2023-04-15T03:42:17.200Z,75.12
2023-04-15T03:44:45.154Z,75.03
2023-04-15T03:47:12.002Z,75.07
2023-04-15T03:49:38.660Z,77.16
2023-04-15T03:52:05.691Z,75.65
2023-04-15T03:54:32.285Z,74.94
2023-04-15T03:56:58.893Z,75.74
2023-04-15T03:59:25.534Z,75.59
2023-04-15T04:01:53.562Z,75.43
2023-04-15T04:04:20.540Z,75.24
2023-04-15T04:06:47.204Z,75.44
2023-04-15T04:09:13.788Z,79.64
2023-04-15T04:11:40.544Z,76.78
2023-04-15T04:14:09.969Z,75.96
2023-04-15T04:16:36.882Z,75.96
2023-04-15T04:19:04.899Z,74.97
2023-04-15T04:21:34.104Z,74.39
2023-04-15T04:24:00.764Z,75.50
2023-04-15T04:26:27.489Z,74.42
2023-04-15T04:28:54.117Z,79.52
2023-04-15T04:31:21.243Z,76.08
2023-04-15T04:33:47.881Z,75.27
2023-04-15T04:36:15.829Z,75.90
2023-04-15T04:38:42.527Z,75.55
2023-04-15T04:41:09.115Z,75.05
2023-04-15T04:43:35.901Z,74.70
2023-04-15T04:46:02.564Z,74.80
2023-04-15T04:48:29.218Z,75.30
2023-04-15T04:50:56.027Z,74.74
2023-04-15T04:53:24.069Z,74.82
2023-04-15T04:55:51.104Z,75.37
2023-04-15T04:58:17.735Z,75.18
2023-04-15T05:00:46.675Z,74.65
2023-04-15T05:03:13.532Z,74.65
2023-04-15T05:05:41.170Z,75.26
2023-04-15T05:08:07.987Z,75.27
2023-04-15T05:10:36.321Z,74.90
2023-04-15T05:13:02.894Z,74.86
2023-04-15T05:15:29.562Z,74.86
2023-04-15T05:17:56.324Z,75.01
2023-04-15T05:20:22.939Z,74.48
2023-04-15T05:22:49.657Z,74.86
2023-04-15T05:25:16.427Z,75.37
2023-04-15T05:27:44.627Z,75.24
2023-04-15T05:30:13.416Z,74.66
2023-04-15T05:32:40.707Z,74.72
2023-04-15T05:35:08.579Z,74.40
2023-04-15T05:37:36.230Z,75.16
2023-04-15T05:40:03.184Z,74.29
2023-04-15T05:42:29.837Z,74.36
2023-04-15T05:44:58.368Z,74.89
2023-04-15T05:47:24.993Z,75.59
2023-04-15T05:49:51.711Z,76.93
2023-04-15T05:52:18.386Z,75.78
2023-04-15T05:54:45.029Z,75.19
2023-04-15T05:57:11.715Z,74.65
2023-04-15T05:59:38.923Z,76.30
2023-04-15T06:02:07.551Z,80.16
2023-04-15T06:04:34.297Z,75.53
2023-04-15T06:07:01.219Z,74.89
2023-04-15T06:09:28.988Z,75.21
2023-04-15T06:11:56.892Z,79.66
2023-04-15T06:14:23.625Z,76.91
2023-04-15T06:16:50.213Z,79.34
2023-04-15T06:19:18.490Z,76.12
2023-04-15T06:21:47.894Z,75.56
2023-04-15T06:24:14.607Z,74.96
2023-04-15T06:26:41.568Z,74.93
2023-04-15T06:29:08.264Z,74.79
2023-04-15T06:31:35.036Z,74.81
2023-04-15T06:34:01.691Z,75.30
2023-04-15T06:36:29.672Z,76.73
2023-04-15T06:38:57.078Z,77.78
2023-04-15T06:41:23.955Z,78.52
2023-04-15T06:43:51.672Z,76.50
2023-04-15T06:46:18.344Z,74.90
2023-04-15T06:48:45.640Z,75.67
2023-04-15T06:51:12.626Z,77.09
2023-04-15T06:53:42.242Z,76.19
2023-04-15T06:56:09.661Z,77.56
2023-04-15T06:58:36.381Z,79.27
2023-04-15T07:01:03.470Z,76.34
2023-04-15T07:03:32.577Z,79.07
2023-04-15T07:05:59.750Z,78.09
2023-04-15T07:08:26.457Z,78.96
2023-04-15T07:10:54.553Z,76.97
2023-04-15T07:13:21.249Z,77.92
2023-04-15T07:15:47.896Z,78.13
2023-04-15T07:18:14.542Z,77.96
2023-04-15T07:20:41.353Z,77.81
2023-04-15T07:23:07.962Z,77.88
2023-04-15T07:25:34.614Z,78.69
2023-04-15T07:28:02.664Z,77.40
2023-04-15T07:30:29.584Z,78.67
2023-04-15T07:32:56.268Z,76.04
2023-04-15T07:35:23.441Z,74.94
2023-04-15T07:37:50.089Z,76.92
2023-04-15T07:40:16.913Z,76.42
2023-04-15T07:42:43.969Z,75.05
2023-04-15T07:45:12.835Z,75.75
2023-04-15T07:47:40.553Z,74.84
2023-04-15T07:50:07.676Z,75.85
2023-04-15T07:52:39.154Z,77.92
2023-04-15T07:55:08.343Z,75.38
2023-04-15T07:57:35.352Z,77.08
2023-04-15T08:00:04.133Z,75.81
2023-04-15T08:02:32.664Z,77.08
2023-04-15T08:04:59.836Z,76.34
2023-04-15T08:07:26.474Z,75.06
2023-04-15T08:09:53.211Z,76.38
2023-04-15T08:12:19.841Z,76.72
2023-04-15T08:14:46.990Z,76.81
2023-04-15T08:17:13.558Z,76.31
2023-04-15T08:19:42.426Z,76.59
2023-04-15T08:22:10.943Z,76.47
2023-04-15T08:24:44.826Z,79.57
2023-04-15T08:27:11.478Z,75.34
2023-04-15T08:29:38.497Z,79.08
2023-04-15T08:32:06.417Z,77.04
2023-04-15T08:34:33.137Z,76.67
2023-04-15T08:37:01.269Z,72.19
2023-04-15T08:39:28.266Z,74.35
2023-04-15T08:42:00.402Z,71.74
2023-04-15T08:44:30.529Z,72.65
2023-04-15T08:46:57.375Z,73.64
2023-04-15T08:49:27.153Z,73.33
2023-04-15T08:51:53.592Z,73.18
2023-04-15T08:54:21.634Z,66.76
2023-04-15T08:56:48.923Z,66.96
2023-04-15T08:59:16.562Z,63.52
2023-04-15T09:01:43.786Z,67.87
2023-04-15T09:04:12.592Z,71.69
2023-04-15T09:06:40.426Z,65.39
2023-04-15T09:09:07.234Z,61.87
2023-04-15T09:11:35.656Z,59.32
2023-04-15T09:14:02.413Z,59.52
2023-04-15T09:16:29.109Z,70.08
2023-04-15T09:18:55.720Z,61.17
2023-04-15T09:21:23.572Z,74.14
2023-04-15T09:23:58.180Z,73.29
2023-04-15T09:26:32.939Z,74.30
2023-04-15T09:29:05.891Z,62.68
2023-04-15T09:31:33.103Z,74.17
2023-04-15T09:34:00.102Z,76.11
2023-04-15T09:36:29.853Z,71.21
2023-04-15T09:38:57.492Z,72.06
2023-04-15T09:41:24.928Z,73.35
2023-04-15T09:43:51.989Z,74.63
2023-04-15T09:46:20.215Z,64.38
2023-04-15T09:48:46.966Z,62.10
2023-04-15T09:51:14.169Z,60.81
2023-04-15T09:53:40.876Z,62.04
2023-04-15T09:56:09.053Z,58.52
2023-04-15T09:58:37.479Z,58.75
2023-04-15T10:01:06.548Z,57.42
2023-04-15T10:03:39.040Z,57.98
2023-04-15T10:06:05.957Z,62.74
2023-04-15T10:08:34.905Z,70.81
2023-04-15T10:11:02.606Z,69.82
2023-04-15T10:13:36.478Z,59.24
2023-04-15T10:16:07.289Z,67.83
2023-04-15T10:18:40.678Z,61.41
2023-04-15T10:21:09.496Z,60.66
2023-04-15T10:23:37.054Z,61.22
2023-04-15T10:26:04.963Z,66.87
2023-04-15T10:28:31.769Z,62.67
2023-04-15T10:30:59.994Z,61.01
2023-04-15T10:33:27.690Z,65.90
2023-04-15T10:35:56.501Z,71.71
2023-04-15T10:38:34.535Z,62.54
2023-04-15T10:41:17.144Z,57.50
2023-04-15T10:43:53.698Z,57.32
2023-04-15T10:46:23.244Z,62.67
2023-04-15T10:48:51.791Z,61.71
2023-04-15T10:51:29.509Z,57.65
2023-04-15T10:54:00.108Z,58.60
2023-04-15T10:56:28.819Z,58.04
2023-04-15T10:58:55.531Z,60.79
2023-04-15T11:01:25.343Z,60.18
2023-04-15T11:03:52.078Z,63.23
2023-04-15T11:06:18.897Z,68.94
2023-04-15T11:08:58.514Z,65.37
2023-04-15T11:11:58.456Z,57.70
2023-04-15T11:14:25.314Z,61.59
2023-04-15T11:16:52.166Z,62.70
2023-04-15T11:19:18.831Z,64.02
2023-04-15T11:21:46.008Z,62.42
2023-04-15T11:24:27.035Z,65.85
2023-04-15T11:26:58.335Z,62.92
2023-04-15T11:29:29.983Z,62.36
2023-04-15T11:32:04.789Z,61.89
2023-04-15T11:34:32.928Z,61.92
2023-04-15T11:37:00.814Z,63.05
2023-04-15T11:39:29.399Z,61.27
2023-04-15T11:41:56.086Z,64.23
2023-04-15T11:44:22.705Z,63.94
2023-04-15T11:46:49.374Z,64.81
2023-04-15T11:49:27.076Z,64.68
2023-04-15T11:51:53.804Z,64.06
2023-04-15T11:54:20.548Z,64.79
2023-04-15T11:56:52.544Z,64.76
2023-04-15T11:59:19.297Z,66.15
2023-04-15T12:01:47.643Z,65.07
2023-04-15T12:04:15.875Z,66.10
2023-04-15T12:06:43.026Z,66.17
2023-04-15T12:09:12.295Z,66.11
2023-04-15T12:11:44.781Z,65.34
2023-04-15T12:14:25.586Z,65.67
2023-04-15T12:16:54.194Z,63.51
2023-04-15T12:19:24.507Z,63.35
2023-04-15T12:21:52.368Z,63.40
2023-04-15T12:24:21.782Z,64.85
2023-04-15T12:26:50.526Z,64.29
2023-04-15T12:29:17.662Z,65.13
2023-04-15T12:31:53.486Z,62.64
2023-04-15T12:34:27.963Z,63.02
2023-04-15T12:36:54.966Z,61.46
2023-04-15T12:39:22.874Z,63.52
2023-04-15T12:41:49.471Z,62.79
2023-04-15T12:44:16.113Z,62.04
2023-04-15T12:46:42.788Z,63.06
2023-04-15T12:49:11.118Z,62.58
2023-04-15T12:51:37.748Z,62.09
2023-04-15T12:54:04.793Z,63.79
2023-04-15T12:56:31.749Z,61.55
2023-04-15T12:58:58.407Z,61.67
2023-04-15T13:01:25.247Z,61.77
2023-04-15T13:03:52.120Z,61.44
2023-04-15T13:06:20.183Z,62.56
2023-04-15T13:08:57.293Z,63.36
2023-04-15T13:11:25.346Z,66.91
2023-04-15T13:13:54.675Z,62.54
2023-04-15T13:16:21.871Z,62.66
2023-04-15T13:18:48.779Z,63.34
2023-04-15T13:21:15.554Z,63.45
2023-04-15T13:23:43.594Z,64.69
2023-04-15T13:26:10.287Z,65.48
2023-04-15T13:28:37.205Z,62.35
2023-04-15T13:31:03.972Z,63.69
2023-04-15T13:33:30.804Z,62.16
2023-04-15T13:35:57.512Z,65.04
2023-04-15T13:38:25.733Z,63.71
2023-04-15T13:40:53.713Z,65.98
2023-04-15T13:43:21.543Z,67.17
2023-04-15T13:45:48.308Z,68.41
2023-04-15T13:48:14.982Z,70.19
2023-04-15T13:50:45.292Z,71.58
2023-04-15T13:53:11.891Z,69.77
2023-04-15T13:55:41.644Z,69.00
2023-04-15T13:58:10.006Z,69.11
2023-04-15T14:00:36.837Z,69.84
2023-04-15T14:03:03.993Z,70.28
2023-04-15T14:05:30.867Z,69.88
2023-04-15T14:07:57.621Z,69.48
2023-04-15T14:10:24.242Z,70.38
2023-04-15T14:12:50.963Z,70.51
2023-04-15T14:15:19.077Z,70.82
2023-04-15T14:17:45.983Z,70.79
2023-04-15T14:20:15.005Z,71.18
2023-04-15T14:22:43.007Z,72.17
2023-04-15T14:25:11.722Z,71.94
2023-04-15T14:27:44.322Z,71.64
2023-04-15T14:30:11.727Z,72.42
2023-04-15T14:32:39.689Z,72.37
2023-04-15T14:35:06.931Z,73.56
2023-04-15T14:37:33.528Z,71.12
2023-04-15T14:40:00.349Z,71.00
2023-04-15T14:42:26.930Z,72.42
2023-04-15T14:44:53.511Z,73.54
2023-04-15T14:47:20.285Z,75.18
2023-04-15T14:49:51.345Z,78.32
2023-04-15T14:52:17.946Z,78.20
2023-04-15T14:54:44.582Z,80.13
2023-04-15T14:57:11.205Z,76.58
2023-04-15T14:59:37.833Z,81.51
2023-04-15T15:02:04.618Z,82.00
2023-04-15T15:04:33.415Z,80.33
2023-04-15T15:07:01.572Z,77.71
2023-04-15T15:09:28.262Z,77.20
2023-04-15T15:11:54.911Z,75.32
2023-04-15T15:14:21.754Z,73.65
2023-04-15T15:16:51.512Z,74.54
2023-04-15T15:19:18.122Z,74.79
2023-04-15T15:21:44.714Z,74.81
2023-04-15T15:24:12.677Z,73.32
2023-04-15T15:26:40.104Z,74.21
2023-04-15T15:29:06.925Z,73.44
2023-04-15T15:31:34.473Z,73.72
2023-04-15T15:34:01.300Z,74.03
2023-04-15T15:36:27.953Z,73.76
2023-04-15T15:38:54.557Z,74.14
2023-04-15T15:41:22.501Z,73.91
2023-04-15T15:43:49.120Z,73.71
2023-04-15T15:46:15.901Z,73.83
2023-04-15T15:48:42.726Z,72.09
2023-04-15T15:51:09.418Z,72.89
2023-04-15T15:53:36.174Z,73.79
2023-04-15T15:56:04.110Z,73.39
2023-04-15T15:58:32.111Z,73.21
2023-04-15T16:01:01.493Z,73.93
2023-04-15T16:03:28.383Z,73.91
2023-04-15T16:05:55.154Z,73.70
2023-04-15T16:08:21.756Z,74.63
2023-04-15T16:10:48.577Z,73.89
2023-04-15T16:13:15.368Z,73.67
2023-04-15T16:15:43.392Z,74.00
2023-04-15T16:18:09.976Z,74.34
2023-04-15T16:20:37.766Z,74.28
2023-04-15T16:23:11.104Z,74.00
2023-04-15T16:25:37.698Z,73.69
2023-04-15T16:28:11.728Z,73.89
2023-04-15T16:30:47.061Z,73.82
2023-04-15T16:33:13.665Z,73.72
2023-04-15T16:35:40.267Z,74.18
2023-04-15T16:38:07.030Z,73.53
2023-04-15T16:40:33.665Z,73.85
2023-04-15T16:43:00.306Z,72.82
2023-04-15T16:45:26.983Z,74.29
2023-04-15T16:47:56.670Z,74.28
2023-04-15T16:50:23.236Z,74.49
2023-04-15T16:52:52.939Z,74.28
2023-04-15T16:55:19.386Z,73.92
2023-04-15T16:58:01.554Z,74.14
2023-04-15T17:00:30.427Z,74.43
2023-04-15T17:02:58.673Z,72.95
2023-04-15T17:05:27.649Z,74.88
2023-04-15T17:07:54.663Z,74.68
2023-04-15T17:10:21.279Z,74.81
2023-04-15T17:12:47.904Z,76.34
2023-04-15T17:15:14.514Z,77.56
2023-04-15T17:17:41.225Z,78.39
2023-04-15T17:20:10.547Z,77.80
2023-04-15T17:22:37.227Z,75.23
2023-04-15T17:25:04.689Z,74.49
2023-04-15T17:27:31.349Z,78.82
2023-04-15T17:29:58.003Z,76.56
2023-04-15T17:32:31.504Z,74.73
2023-04-15T17:34:58.293Z,74.00
2023-04-15T17:37:26.826Z,74.29
2023-04-15T17:39:53.508Z,74.49
2023-04-15T17:42:21.531Z,74.02
2023-04-15T17:44:48.111Z,73.46
2023-04-15T17:47:14.769Z,74.30
2023-04-15T17:49:41.381Z,74.72
2023-04-15T17:52:08.037Z,73.47
2023-04-15T17:54:36.074Z,74.57
2023-04-15T17:57:03.249Z,72.50
2023-04-15T17:59:29.999Z,75.11
2023-04-15T18:01:58.050Z,74.51
2023-04-15T18:04:26.505Z,74.37
2023-04-15T18:06:56.406Z,71.63
2023-04-15T18:09:23.069Z,73.66
2023-04-15T18:11:51.242Z,73.57
2023-04-15T18:14:30.770Z,71.22
2023-04-15T18:16:59.978Z,74.42
2023-04-15T18:19:26.559Z,74.12
2023-04-15T18:21:53.244Z,75.41
2023-04-15T18:24:19.831Z,74.26
2023-04-15T18:26:48.883Z,73.95
2023-04-15T18:29:19.521Z,74.12
2023-04-15T18:31:46.163Z,74.01
2023-04-15T18:34:13.110Z,73.89
2023-04-15T18:36:39.802Z,74.06
2023-04-15T18:39:06.731Z,76.79
2023-04-15T18:41:33.587Z,75.34
2023-04-15T18:44:02.223Z,73.51
2023-04-15T18:46:30.182Z,74.47
2023-04-15T18:48:56.755Z,74.76
2023-04-15T18:51:23.387Z,75.58
2023-04-15T18:53:49.981Z,74.39
2023-04-15T18:56:16.554Z,74.27
2023-04-15T18:59:09.209Z,73.59
2023-04-15T19:01:31.685Z,73.51
2023-04-15T19:03:58.423Z,73.12
2023-04-15T19:06:26.753Z,71.29
2023-04-15T19:08:53.435Z,74.97
2023-04-15T19:11:20.037Z,73.77
2023-04-15T19:13:46.618Z,73.63
2023-04-15T19:16:13.557Z,73.49
2023-04-15T19:18:41.581Z,73.33
2023-04-15T19:21:08.192Z,73.38
2023-04-15T19:23:34.817Z,73.40
2023-04-15T19:26:01.484Z,73.73
2023-04-15T19:28:28.392Z,73.89
2023-04-15T19:30:55.238Z,73.78
2023-04-15T19:33:21.972Z,74.08
2023-04-15T19:35:50.306Z,73.73
2023-04-15T19:38:17.093Z,73.17
2023-04-15T19:40:43.794Z,73.65
2023-04-15T19:43:10.388Z,73.80
2023-04-15T19:45:37.064Z,73.38
2023-04-15T19:48:06.040Z,72.92
2023-04-15T19:50:32.807Z,73.17
2023-04-15T19:53:00.750Z,73.81
2023-04-15T19:55:27.318Z,73.58
2023-04-15T19:57:53.897Z,73.41
2023-04-15T20:00:20.930Z,73.34
2023-04-15T20:02:47.729Z,73.52
2023-04-15T20:05:14.534Z,72.96
2023-04-15T20:07:42.562Z,73.75
2023-04-15T20:10:13.295Z,73.69
2023-04-15T20:12:49.547Z,73.71
2023-04-15T20:15:19.625Z,76.83
2023-04-15T20:17:46.375Z,74.34
2023-04-15T20:20:13.065Z,74.03
2023-04-15T20:22:39.739Z,74.09
2023-04-15T20:25:07.343Z,73.84
2023-04-15T20:27:35.438Z,72.63
2023-04-15T20:30:03.312Z,73.72
2023-04-15T20:32:32.578Z,73.24
2023-04-15T20:34:59.230Z,73.37
2023-04-15T20:37:25.997Z,73.78
2023-04-15T20:39:52.964Z,73.54
2023-04-15T20:42:19.734Z,73.62
2023-04-15T20:44:47.704Z,76.52
2023-04-15T20:47:14.346Z,74.30
2023-04-15T20:49:41.180Z,73.65
2023-04-15T20:52:08.632Z,73.28
2023-04-15T20:54:35.502Z,73.83
2023-04-15T20:57:02.549Z,73.85
2023-04-15T20:59:29.232Z,73.93
2023-04-15T21:01:57.520Z,73.86
2023-04-15T21:04:24.611Z,73.38
2023-04-15T21:06:52.208Z,73.86
2023-04-15T21:09:19.032Z,73.39
2023-04-15T21:14:19.653Z,73.63
2023-04-15T21:16:46.511Z,73.52
2023-04-15T21:19:14.872Z,73.38
2023-04-15T21:21:41.507Z,73.69
2023-04-15T21:24:08.176Z,73.63
2023-04-15T21:26:36.063Z,73.59
2023-04-15T21:29:03.049Z,77.36
2023-04-15T21:31:30.073Z,81.28
2023-04-15T21:33:56.812Z,77.11
2023-04-15T21:36:24.795Z,74.73
2023-04-15T21:38:51.482Z,73.99
2023-04-15T21:41:18.164Z,74.23
2023-04-15T21:43:44.844Z,74.19
2023-04-15T21:46:23.146Z,74.04
2023-04-15T21:48:55.982Z,72.54
2023-04-15T21:51:24.025Z,74.83
2023-04-15T21:53:50.749Z,74.60
2023-04-15T21:56:17.346Z,72.72
2023-04-15T21:58:43.962Z,75.22
2023-04-15T22:01:10.587Z,74.38
2023-04-15T22:03:37.398Z,77.36
2023-04-15T22:06:04.581Z,75.74
2023-04-15T22:08:38.720Z,74.69
2023-04-15T22:11:18.473Z,75.62
2023-04-15T22:13:45.060Z,77.25
2023-04-15T22:16:11.962Z,76.71
2023-04-15T22:18:38.588Z,76.59
2023-04-15T22:21:05.239Z,74.98
2023-04-15T22:23:33.161Z,75.49
2023-04-15T22:25:59.846Z,75.20
2023-04-15T22:28:26.505Z,75.47
2023-04-15T22:30:54.570Z,75.37
2023-04-15T22:33:21.305Z,75.07
2023-04-15T22:35:47.912Z,74.78
2023-04-15T22:38:14.513Z,75.05
2023-04-15T22:40:42.444Z,74.66
2023-04-15T22:43:09.105Z,74.77
2023-04-15T22:45:36.025Z,74.49
2023-04-15T22:48:02.646Z,75.02
2023-04-15T22:50:29.246Z,76.19
2023-04-15T22:52:55.911Z,74.77
2023-04-15T22:55:22.551Z,74.12
2023-04-15T22:57:50.555Z,73.29
2023-04-15T23:00:17.507Z,74.70
2023-04-15T23:02:44.188Z,75.41
2023-04-15T23:05:12.000Z,75.14
2023-04-15T23:07:40.317Z,75.22
2023-04-15T23:10:08.099Z,75.32
2023-04-15T23:12:34.893Z,75.15
2023-04-15T23:15:03.119Z,72.93
2023-04-15T23:17:29.779Z,75.57
2023-04-15T23:19:56.383Z,74.61
2023-04-15T23:22:23.038Z,75.15
2023-04-15T23:24:49.633Z,75.12
2023-04-15T23:27:18.912Z,75.16
2023-04-15T23:29:46.020Z,74.23
2023-04-15T23:32:14.023Z,75.26
2023-04-15T23:34:40.710Z,75.18
2023-04-15T23:37:07.533Z,74.84
2023-04-15T23:39:34.115Z,73.44
2023-04-15T23:42:01.122Z,73.83
2023-04-15T23:44:27.706Z,74.29
2023-04-15T23:46:54.357Z,74.47
2023-04-15T23:49:22.414Z,74.67
2023-04-15T23:51:49.136Z,74.47
2023-04-15T23:54:15.695Z,74.23
2023-04-15T23:56:42.289Z,74.44
2023-04-15T23:59:09.157Z,74.96
